Time;durP1;ratioP1;P1;durP2;ratioP2;P2;SDS_P1;SDS_P2;PMS_P1;PMS_P2;Temp;Humidity;BMP_temperature;BMP_pressure;BME280_temperature;BME280_humidity;BME280_pressure;Samples;Min_cycle;Max_cycle;Signal;HPM_P1;HPM_P2
2021/05/19 00:01:45;;;;;;;6.22;1.85;;;11.50;72.30;;;;;;5046783;28;20211;-82
2021/05/19 00:04:11;;;;;;;2.58;1.40;;;11.40;72.40;;;;;;5053421;28;20198;-81
2021/05/19 00:06:38;;;;;;;1.67;1.35;;;11.40;73.10;;;;;;5051835;28;20199;-83
2021/05/19 00:09:06;;;;;;;1.98;1.20;;;11.30;73.10;;;;;;5050863;28;20207;-83
2021/05/19 00:11:34;;;;;;;2.17;1.27;;;11.30;74.40;;;;;;5050693;28;20218;-83
2021/05/19 00:14:06;;;;;;;2.58;1.23;;;11.30;74.70;;;;;;5052971;28;20563;-82
2021/05/19 00:16:33;;;;;;;2.58;1.13;;;11.20;75.10;;;;;;5051687;28;20278;-83
2021/05/19 00:19:03;;;;;;;1.42;1.17;;;11.20;75.10;;;;;;5052262;28;20233;-82
2021/05/19 00:21:29;;;;;;;1.27;1.17;;;11.10;75.50;;;;;;5050578;28;20215;-83
2021/05/19 00:23:56;;;;;;;1.88;1.77;;;11.10;76.70;;;;;;5051990;28;20241;-83
2021/05/19 00:26:24;;;;;;;1.45;1.33;;;11.10;76.60;;;;;;5040623;28;20235;-82
2021/05/19 00:28:53;;;;;;;1.52;1.42;;;11.10;76.80;;;;;;5031904;28;20422;-82
2021/05/19 00:31:22;;;;;;;1.58;1.42;;;11.10;76.80;;;;;;5051389;28;20210;-83
2021/05/19 00:33:49;;;;;;;4.65;1.33;;;11.10;77.10;;;;;;5040420;28;20211;-83
2021/05/19 00:36:16;;;;;;;2.55;1.40;;;11.00;77.20;;;;;;5042784;28;20214;-81
2021/05/19 00:38:42;;;;;;;3.80;1.45;;;11.00;77.20;;;;;;5038458;28;20253;-83
2021/05/19 00:41:10;;;;;;;2.80;1.25;;;11.00;77.20;;;;;;5039141;28;20203;-83
2021/05/19 00:43:37;;;;;;;1.17;1.08;;;11.00;77.10;;;;;;5041296;28;20215;-83
2021/05/19 00:46:04;;;;;;;2.67;1.40;;;11.00;77.20;;;;;;5050445;28;20222;-82
2021/05/19 00:48:30;;;;;;;2.05;1.40;;;11.00;77.20;;;;;;5049016;28;20219;-82
2021/05/19 00:50:58;;;;;;;1.30;1.20;;;11.00;76.60;;;;;;5048401;28;20271;-82
2021/05/19 00:53:24;;;;;;;3.35;1.50;;;11.00;77.20;;;;;;5043597;28;20215;-82
2021/05/19 00:55:51;;;;;;;1.35;1.25;;;10.90;77.10;;;;;;5040539;28;20206;-82
2021/05/19 00:58:18;;;;;;;1.50;1.40;;;11.00;77.20;;;;;;5045515;28;20219;-83
2021/05/19 01:00:45;;;;;;;1.42;1.33;;;10.90;77.10;;;;;;5052599;28;20212;-83
2021/05/19 01:03:11;;;;;;;1.77;1.30;;;10.90;77.10;;;;;;5055227;28;20259;-84
2021/05/19 01:05:42;;;;;;;1.88;1.77;;;10.90;77.10;;;;;;5055008;28;20238;-81
2021/05/19 01:10:54;;;;;;;1.40;1.30;;;10.80;78.50;;;;;;5057238;28;20275;-82
2021/05/19 01:13:21;;;;;;;1.83;1.30;;;10.70;78.80;;;;;;5059520;28;20183;-83
2021/05/19 01:15:49;;;;;;;2.05;1.55;;;10.60;79.70;;;;;;5060701;28;20191;-83
2021/05/19 01:18:15;;;;;;;2.78;1.40;;;10.60;79.90;;;;;;5061070;28;20218;-83
2021/05/19 01:20:42;;;;;;;1.63;1.48;;;10.50;79.70;;;;;;5058639;28;20203;-82
2021/05/19 01:23:09;;;;;;;1.73;1.60;;;10.50;80.40;;;;;;5045664;28;20701;-82
2021/05/19 01:25:37;;;;;;;1.90;1.70;;;10.40;81.00;;;;;;5045516;28;20211;-82
2021/05/19 01:28:05;;;;;;;2.08;1.60;;;10.40;81.60;;;;;;5046744;28;20235;-82
2021/05/19 01:30:34;;;;;;;5.05;1.92;;;10.40;81.80;;;;;;5043869;28;20234;-81
2021/05/19 01:33:01;;;;;;;1.90;1.40;;;10.30;82.10;;;;;;5049899;28;20200;-84
2021/05/19 01:35:28;;;;;;;2.90;1.67;;;10.30;82.50;;;;;;5049993;28;20199;-82
2021/05/19 01:37:54;;;;;;;2.85;1.90;;;10.30;82.60;;;;;;5054936;28;20634;-82
2021/05/19 01:40:23;;;;;;;3.05;2.13;;;10.20;82.80;;;;;;5058287;28;20218;-82
2021/05/19 01:42:51;;;;;;;2.15;1.95;;;10.20;83.60;;;;;;5053902;28;20644;-82
2021/05/19 01:45:18;;;;;;;3.75;1.60;;;10.10;84.10;;;;;;5049766;28;20270;-83
2021/05/19 01:47:47;;;;;;;2.92;1.90;;;10.10;84.80;;;;;;5050659;28;20489;-82
2021/05/19 01:50:16;;;;;;;1.92;1.40;;;10.10;84.80;;;;;;5048504;28;20206;-82
2021/05/19 01:52:44;;;;;;;1.70;1.60;;;10.10;84.80;;;;;;5047689;28;20194;-82
2021/05/19 01:55:13;;;;;;;4.05;1.65;;;10.00;84.70;;;;;;5050686;28;20187;-81
2021/05/19 01:57:43;;;;;;;2.10;1.70;;;10.00;85.60;;;;;;5042878;28;20310;-81
2021/05/19 02:00:11;;;;;;;2.15;1.60;;;10.10;86.30;;;;;;5052869;28;20218;-83
2021/05/19 02:02:38;;;;;;;1.88;1.77;;;10.00;86.20;;;;;;5058544;28;20218;-80
2021/05/19 02:05:07;;;;;;;2.13;1.80;;;10.00;86.50;;;;;;5059182;28;20183;-80
2021/05/19 02:07:36;;;;;;;4.50;2.00;;;10.00;86.80;;;;;;5059559;28;20245;-83
2021/05/19 02:10:05;;;;;;;5.03;2.00;;;10.70;87.40;;;;;;5060173;28;20194;-81
2021/05/19 02:12:31;;;;;;;2.08;1.90;;;9.90;87.60;;;;;;5057386;28;20215;-82
2021/05/19 02:14:59;;;;;;;2.08;1.50;;;9.90;88.10;;;;;;5054843;28;20237;-83
2021/05/19 02:17:27;;;;;;;3.22;1.80;;;9.90;88.40;;;;;;5057014;28;20242;-83
2021/05/19 02:19:53;;;;;;;2.70;1.90;;;9.80;88.70;;;;;;5056533;28;20235;-83
2021/05/19 02:22:20;;;;;;;2.13;1.85;;;9.80;89.00;;;;;;5045969;28;20636;-80
2021/05/19 02:24:47;;;;;;;4.13;1.95;;;9.80;89.30;;;;;;5057796;28;20218;-81
2021/05/19 02:27:19;;;;;;;4.57;2.58;;;9.80;89.70;;;;;;5056689;28;20227;-82
2021/05/19 02:29:53;;;;;;;2.58;2.17;;;9.70;89.80;;;;;;5054211;28;20187;-81
2021/05/19 02:32:21;;;;;;;2.20;1.85;;;9.70;90.40;;;;;;5042740;28;20210;-82
2021/05/19 02:34:48;;;;;;;2.00;1.80;;;9.70;90.20;;;;;;5039360;28;20214;-83
2021/05/19 02:37:15;;;;;;;1.88;1.77;;;9.70;90.40;;;;;;5040394;28;20276;-81
2021/05/19 02:39:41;;;;;;;1.77;1.58;;;9.60;90.40;;;;;;5039599;28;20695;-83
2021/05/19 02:42:08;;;;;;;3.28;2.15;;;9.60;90.60;;;;;;5040231;28;20253;-80
2021/05/19 02:44:35;;;;;;;7.13;2.03;;;9.60;90.70;;;;;;5038153;28;20218;-82
2021/05/19 02:47:02;;;;;;;2.60;1.92;;;9.60;90.90;;;;;;5039231;28;20265;-82
2021/05/19 02:49:29;;;;;;;2.40;2.13;;;9.60;91.00;;;;;;5038591;28;20226;-83
2021/05/19 02:51:56;;;;;;;4.50;2.63;;;9.60;91.30;;;;;;5045081;28;20259;-82
2021/05/19 02:54:22;;;;;;;3.33;2.35;;;9.50;91.10;;;;;;5054925;28;20207;-82
2021/05/19 02:56:49;;;;;;;2.08;1.98;;;9.60;91.50;;;;;;5049076;28;20203;-83
2021/05/19 02:59:16;;;;;;;2.63;2.10;;;9.50;91.50;;;;;;5055097;28;20215;-81
2021/05/19 03:01:43;;;;;;;2.63;2.35;;;9.50;91.50;;;;;;5057709;28;20183;-81
2021/05/19 03:04:09;;;;;;;2.20;2.00;;;9.60;91.40;;;;;;5057593;28;20259;-81
2021/05/19 03:06:37;;;;;;;2.58;2.35;;;9.60;91.20;;;;;;5056959;28;20222;-83
2021/05/19 03:09:04;;;;;;;2.53;2.33;;;9.50;91.00;;;;;;5049722;28;20246;-83
2021/05/19 03:11:31;;;;;;;3.08;2.40;;;9.60;91.00;;;;;;5043481;28;20199;-82
2021/05/19 03:13:57;;;;;;;2.58;2.38;;;9.50;90.80;;;;;;5047730;28;20230;-82
2021/05/19 03:16:26;;;;;;;2.90;2.70;;;9.60;90.90;;;;;;5052690;28;20211;-82
2021/05/19 03:18:58;;;;;;;2.63;2.20;;;9.50;90.80;;;;;;5051054;28;20222;-82
2021/05/19 03:21:25;;;;;;;2.75;2.28;;;9.50;90.90;;;;;;5049246;28;20207;-83
2021/05/19 03:23:53;;;;;;;2.80;2.50;;;9.40;91.50;;;;;;5047928;28;20616;-83
2021/05/19 03:26:19;;;;;;;5.80;2.47;;;9.50;91.50;;;;;;5046709;28;20238;-81
2021/05/19 03:28:46;;;;;;;4.30;2.75;;;9.50;91.10;;;;;;5046187;28;20238;-84
2021/05/19 03:31:12;;;;;;;6.30;2.63;;;9.50;91.10;;;;;;5047597;28;20238;-83
2021/05/19 03:33:39;;;;;;;3.67;2.15;;;9.50;90.80;;;;;;5046335;28;20342;-81
2021/05/19 03:36:07;;;;;;;4.57;2.40;;;9.60;90.70;;;;;;5045512;28;20234;-80
2021/05/19 03:38:35;;;;;;;4.05;2.22;;;9.60;90.50;;;;;;5030330;28;20262;-80
2021/05/19 03:41:04;;;;;;;3.05;2.35;;;9.60;90.10;;;;;;5021173;28;20208;-80
2021/05/19 03:43:31;;;;;;;3.08;2.33;;;9.60;90.10;;;;;;5025452;28;20204;-80
2021/05/19 03:46:01;;;;;;;4.60;2.60;;;9.60;89.90;;;;;;5033565;28;20195;-81
2021/05/19 03:48:27;;;;;;;4.20;2.38;;;9.60;89.50;;;;;;5030824;28;20211;-81
2021/05/19 03:50:55;;;;;;;2.05;1.85;;;9.60;89.50;;;;;;5032994;28;20208;-80
2021/05/19 03:53:21;;;;;;;2.45;2.25;;;9.60;89.40;;;;;;5040467;28;20229;-80
2021/05/19 03:55:48;;;;;;;3.28;2.35;;;9.70;89.40;;;;;;5052754;28;20235;-81
2021/05/19 03:58:15;;;;;;;3.47;2.10;;;9.70;88.40;;;;;;5050592;28;20216;-81
2021/05/19 04:00:42;;;;;;;3.67;2.72;;;9.80;88.10;;;;;;5035264;28;20207;-82
2021/05/19 04:03:09;;;;;;;2.58;2.38;;;9.80;87.50;;;;;;5035247;28;20187;-80
2021/05/19 04:05:36;;;;;;;2.35;2.15;;;9.90;86.30;;;;;;5035762;28;20199;-80
2021/05/19 04:08:05;;;;;;;2.42;2.20;;;10.00;85.30;;;;;;5033432;28;20372;-80
2021/05/19 04:10:32;;;;;;;4.05;2.30;;;10.10;82.50;;;;;;5024839;28;20571;-79
2021/05/19 04:13:04;;;;;;;3.67;2.10;;;10.20;81.10;;;;;;5028054;28;20215;-80
2021/05/19 04:15:33;;;;;;;2.85;2.10;;;10.40;80.40;;;;;;5042483;28;20211;-79
2021/05/19 04:18:02;;;;;;;1.77;1.63;;;10.40;79.10;;;;;;5041248;28;20227;-80
2021/05/19 04:20:38;;;;;;;2.80;2.30;;;10.60;78.10;;;;;;5025769;28;20215;-82
2021/05/19 04:23:04;;;;;;;4.68;2.28;;;10.70;76.90;;;;;;5026977;28;20246;-81
2021/05/19 04:25:34;;;;;;;1.92;1.83;;;10.80;75.80;;;;;;5035519;28;20242;-84
2021/05/19 04:28:04;;;;;;;1.80;1.70;;;10.90;74.70;;;;;;5047605;28;20212;-82
2021/05/19 04:30:31;;;;;;;3.13;2.05;;;10.90;74.50;;;;;;5042392;28;20229;-82
2021/05/19 04:32:57;;;;;;;5.15;2.30;;;10.90;73.60;;;;;;5043991;28;20222;-81
2021/05/19 04:35:24;;;;;;;2.03;1.83;;;11.00;73.00;;;;;;5043231;28;20223;-80
2021/05/19 04:37:50;;;;;;;2.80;1.95;;;11.10;72.90;;;;;;5036340;28;20263;-79
2021/05/19 04:40:17;;;;;;;2.25;2.05;;;11.00;71.80;;;;;;5037399;28;20290;-79
2021/05/19 04:42:44;;;;;;;3.88;2.42;;;11.10;71.90;;;;;;5039619;28;20302;-80
2021/05/19 04:45:11;;;;;;;2.28;2.08;;;11.10;71.30;;;;;;5042013;28;20214;-80
2021/05/19 04:47:38;;;;;;;2.95;1.83;;;11.20;70.00;;;;;;5039999;28;20261;-79
2021/05/19 04:50:07;;;;;;;2.85;2.20;;;11.30;70.00;;;;;;5040250;28;20267;-79
2021/05/19 04:52:33;;;;;;;4.32;2.10;;;11.20;70.10;;;;;;5040032;28;20346;-80
2021/05/19 04:55:03;;;;;;;2.67;2.47;;;11.10;71.30;;;;;;5048512;28;20233;-80
2021/05/19 04:57:30;;;;;;;3.55;2.50;;;11.00;71.50;;;;;;5050509;28;20215;-80
2021/05/19 04:59:56;;;;;;;4.95;2.47;;;10.90;72.80;;;;;;5039612;28;20249;-79
2021/05/19 05:02:23;;;;;;;2.10;1.88;;;10.80;73.80;;;;;;5039644;28;20213;-80
2021/05/19 05:04:52;;;;;;;2.22;2.03;;;10.90;73.90;;;;;;5040978;28;20286;-80
2021/05/19 05:07:19;;;;;;;2.92;2.10;;;10.90;74.20;;;;;;5049948;28;20222;-80
2021/05/19 05:09:47;;;;;;;3.75;2.28;;;11.00;74.60;;;;;;5049622;28;20675;-80
2021/05/19 05:12:14;;;;;;;2.88;2.58;;;11.00;74.80;;;;;;5054570;28;20199;-79
2021/05/19 05:14:40;;;;;;;3.10;2.05;;;11.00;74.40;;;;;;5057017;28;20211;-79
2021/05/19 05:17:07;;;;;;;3.92;2.78;;;11.00;74.50;;;;;;5049659;28;20294;-80
2021/05/19 05:19:33;;;;;;;2.65;2.00;;;10.90;74.80;;;;;;5051902;28;20219;-80
2021/05/19 05:22:00;;;;;;;2.70;2.17;;;11.00;74.40;;;;;;5054139;28;20211;-80
2021/05/19 05:24:27;;;;;;;2.35;2.15;;;10.90;74.40;;;;;;5056723;28;20210;-79
2021/05/19 05:26:55;;;;;;;4.35;2.22;;;10.90;75.30;;;;;;5046663;28;20266;-80
2021/05/19 05:29:22;;;;;;;2.70;2.50;;;10.90;74.90;;;;;;5113796;22;20214;-82
2021/05/19 05:31:48;;;;;;;2.97;2.70;;;10.90;75.40;;;;;;5061985;28;20211;-81
2021/05/19 05:34:15;;;;;;;3.20;2.22;;;10.90;75.60;;;;;;5064631;28;20253;-80
2021/05/19 05:36:45;;;;;;;4.18;3.35;;;10.80;75.50;;;;;;5067516;28;20206;-82
2021/05/19 05:39:12;;;;;;;3.10;2.45;;;10.90;75.60;;;;;;5054108;28;20215;-80
2021/05/19 05:41:39;;;;;;;4.47;2.90;;;10.90;75.20;;;;;;5052072;28;20230;-82
2021/05/19 05:44:06;;;;;;;4.00;3.17;;;10.90;75.80;;;;;;5052218;28;20210;-81
2021/05/19 05:46:33;;;;;;;4.57;3.17;;;11.00;75.90;;;;;;5053623;28;20199;-82
2021/05/19 05:48:59;;;;;;;2.97;2.65;;;11.10;74.70;;;;;;5051250;28;20223;-81
2021/05/19 05:51:27;;;;;;;3.33;3.03;;;11.10;74.00;;;;;;5044514;28;20215;-81
2021/05/19 05:53:53;;;;;;;4.32;3.28;;;11.10;73.20;;;;;;5049746;28;20218;-82
2021/05/19 05:56:21;;;;;;;3.58;3.05;;;11.10;73.90;;;;;;5058951;28;20210;-85
2021/05/19 05:58:48;;;;;;;3.22;2.95;;;11.20;73.10;;;;;;5058660;28;20270;-82
2021/05/19 06:01:15;;;;;;;5.47;3.90;;;11.20;74.10;;;;;;5059620;28;20202;-83
2021/05/19 06:03:42;;;;;;;4.20;3.78;;;11.20;74.80;;;;;;5058810;28;20247;-83
2021/05/19 06:06:17;;;;;;;4.80;3.95;;;11.30;73.10;;;;;;5046229;28;20636;-81
2021/05/19 06:08:44;;;;;;;4.68;3.72;;;11.40;72.00;;;;;;5042070;28;20268;-83
2021/05/19 06:11:10;;;;;;;5.93;4.28;;;11.30;71.00;;;;;;5042493;28;20218;-85
2021/05/19 06:13:38;;;;;;;5.35;4.22;;;11.20;72.10;;;;;;5044613;28;20215;-82
2021/05/19 06:16:05;;;;;;;4.47;4.07;;;11.20;72.60;;;;;;5043906;28;20211;-82
2021/05/19 06:18:32;;;;;;;4.82;4.15;;;11.30;73.00;;;;;;5041407;28;20261;-80
2021/05/19 06:20:58;;;;;;;5.85;4.30;;;11.40;72.70;;;;;;5044365;28;20230;-82
2021/05/19 06:23:25;;;;;;;4.68;4.28;;;11.40;71.70;;;;;;5043954;28;20207;-83
2021/05/19 06:25:52;;;;;;;4.53;4.13;;;11.50;70.60;;;;;;5049425;28;20210;-81
2021/05/19 06:28:19;;;;;;;7.10;4.45;;;11.50;70.80;;;;;;5045316;28;20239;-82
2021/05/19 06:30:50;;;;;;;8.65;3.70;;;11.50;71.60;;;;;;5045447;28;20610;-82
2021/05/19 06:33:19;;;;;;;5.70;4.05;;;11.50;71.90;;;;;;5044155;28;20207;-82
2021/05/19 06:35:46;;;;;;;5.47;3.97;;;11.50;71.70;;;;;;5048702;28;20213;-84
2021/05/19 06:38:13;;;;;;;7.68;4.30;;;11.50;71.50;;;;;;5049479;28;20284;-82
2021/05/19 06:40:40;;;;;;;6.18;3.92;;;11.50;71.40;;;;;;5046713;28;20215;-81
2021/05/19 06:43:06;;;;;;;5.30;4.30;;;11.60;71.40;;;;;;5044441;28;20215;-80
2021/05/19 06:45:34;;;;;;;5.85;3.92;;;11.70;70.70;;;;;;5042310;28;20305;-80
2021/05/19 06:48:02;;;;;;;6.72;4.35;;;11.70;70.70;;;;;;5044893;28;20255;-79
2021/05/19 06:50:28;;;;;;;4.60;4.20;;;11.80;69.30;;;;;;5038697;28;20203;-79
2021/05/19 06:52:54;;;;;;;4.60;4.20;;;11.70;69.10;;;;;;5039241;28;20297;-80
2021/05/19 06:55:22;;;;;;;5.65;4.35;;;11.80;69.20;;;;;;5034984;28;20217;-79
2021/05/19 06:57:49;;;;;;;5.25;4.75;;;11.70;69.70;;;;;;5036889;28;20233;-78
2021/05/19 07:00:17;;;;;;;6.10;5.20;;;11.50;69.50;;;;;;5038898;28;20317;-79
2021/05/19 07:02:43;;;;;;;6.00;4.97;;;11.50;72.00;;;;;;5039257;28;20553;-80
2021/05/19 07:05:15;;;;;;;5.13;4.65;;;11.50;71.50;;;;;;5041071;28;20227;-79
2021/05/19 07:07:42;;;;;;;4.95;4.55;;;11.60;70.80;;;;;;5048551;28;20226;-79
2021/05/19 07:10:09;;;;;;;4.72;4.22;;;11.70;70.10;;;;;;5052922;28;20231;-80
2021/05/19 07:12:36;;;;;;;5.65;5.05;;;11.80;69.20;;;;;;5051704;28;20218;-79
2021/05/19 07:15:10;;;;;;;5.47;5.03;;;11.80;68.70;;;;;;5052684;28;20243;-80
2021/05/19 07:17:37;;;;;;;7.60;5.32;;;11.80;67.50;;;;;;5053656;28;20556;-80
2021/05/19 07:20:04;;;;;;;5.78;5.15;;;11.80;67.60;;;;;;5054657;28;20229;-80
2021/05/19 07:22:31;;;;;;;7.30;5.22;;;11.90;68.00;;;;;;5056902;28;20195;-81
2021/05/19 07:24:58;;;;;;;6.60;5.20;;;12.50;65.70;;;;;;5057408;28;20206;-82
2021/05/19 07:27:24;;;;;;;5.57;4.95;;;13.00;61.40;;;;;;5056642;28;20191;-82
2021/05/19 07:29:51;;;;;;;10.50;4.72;;;13.60;60.90;;;;;;5057189;28;20241;-78
2021/05/19 07:32:17;;;;;;;5.15;4.75;;;14.00;56.90;;;;;;5056751;28;20219;-77
2021/05/19 07:34:44;;;;;;;5.53;4.60;;;14.40;53.30;;;;;;5046238;28;20199;-78
2021/05/19 07:37:10;;;;;;;7.00;4.47;;;14.50;53.40;;;;;;5045340;28;20219;-81
2021/05/19 07:39:38;;;;;;;5.47;4.20;;;14.40;53.20;;;;;;5043076;28;20230;-79
2021/05/19 07:42:05;;;;;;;6.90;5.15;;;14.40;53.10;;;;;;5041853;28;20318;-79
2021/05/19 07:44:35;;;;;;;7.05;5.18;;;14.60;52.50;;;;;;5053955;28;20210;-81
2021/05/19 07:47:01;;;;;;;5.47;4.90;;;14.40;51.80;;;;;;5055338;28;20191;-80
2021/05/19 07:49:28;;;;;;;7.45;4.50;;;14.40;50.80;;;;;;5056711;28;20274;-80
2021/05/19 07:51:54;;;;;;;5.35;4.85;;;14.20;51.30;;;;;;5056595;28;20211;-81
2021/05/19 07:54:25;;;;;;;4.85;3.88;;;14.10;52.50;;;;;;5056990;28;20254;-81
2021/05/19 07:56:56;;;;;;;6.03;3.75;;;14.10;53.10;;;;;;5056344;28;20208;-80
2021/05/19 07:59:25;;;;;;;4.40;4.05;;;14.00;52.90;;;;;;5055189;28;20238;-80
2021/05/19 08:02:04;;;;;;;5.13;4.30;;;14.00;53.00;;;;;;5047850;28;20225;-79
2021/05/19 08:04:33;;;;;;;6.03;4.22;;;14.00;53.00;;;;;;5053304;28;20213;-79
2021/05/19 08:06:59;;;;;;;5.38;4.15;;;14.10;52.50;;;;;;5047135;28;20215;-79
2021/05/19 08:09:26;;;;;;;6.03;4.60;;;14.30;51.60;;;;;;5040305;28;20246;-80
2021/05/19 08:11:54;;;;;;;4.97;4.32;;;14.00;51.90;;;;;;5038388;28;20294;-80
2021/05/19 08:14:20;;;;;;;4.80;4.40;;;14.10;53.10;;;;;;5037265;28;20211;-79
2021/05/19 08:16:47;;;;;;;4.40;4.00;;;14.30;51.30;;;;;;5034155;28;20247;-80
2021/05/19 08:19:13;;;;;;;6.90;4.05;;;14.20;51.60;;;;;;5037071;28;20227;-80
2021/05/19 08:21:40;;;;;;;4.32;3.92;;;14.60;50.10;;;;;;5038907;28;20618;-79
2021/05/19 08:24:08;;;;;;;6.03;4.80;;;14.70;49.40;;;;;;5041267;28;20273;-79
2021/05/19 08:26:35;;;;;;;3.47;3.17;;;14.40;49.00;;;;;;5041037;28;20207;-80
2021/05/19 08:29:03;;;;;;;5.38;4.40;;;14.50;50.00;;;;;;5035083;28;20239;-80
2021/05/19 08:31:30;;;;;;;7.88;4.50;;;15.00;49.10;;;;;;5039934;28;20271;-79
2021/05/19 08:33:57;;;;;;;4.00;3.60;;;15.00;47.90;;;;;;5041187;28;20239;-78
2021/05/19 08:36:27;;;;;;;4.45;4.05;;;14.70;48.10;;;;;;5038000;28;20207;-81
2021/05/19 08:38:56;;;;;;;5.07;4.45;;;14.30;49.50;;;;;;5044747;28;20233;-80
2021/05/19 08:41:23;;;;;;;4.60;4.13;;;14.00;50.30;;;;;;5040657;28;20467;-79
2021/05/19 08:43:49;;;;;;;4.57;4.00;;;14.00;51.30;;;;;;5051212;28;20207;-80
2021/05/19 08:46:17;;;;;;;7.90;4.38;;;14.00;51.00;;;;;;5049342;28;20230;-78
2021/05/19 08:48:52;;;;;;;4.22;3.83;;;14.00;49.40;;;;;;5048066;28;20332;-81
2021/05/19 08:51:18;;;;;;;2.45;2.25;;;13.90;49.10;;;;;;5044772;28;20225;-79
2021/05/19 08:53:45;;;;;;;4.65;2.63;;;13.80;44.90;;;;;;5043748;28;20195;-79
2021/05/19 08:56:13;;;;;;;3.33;2.60;;;13.80;43.80;;;;;;5044887;28;20211;-80
2021/05/19 08:58:39;;;;;;;2.55;2.35;;;13.80;44.50;;;;;;5046918;28;20265;-80
2021/05/19 09:01:06;;;;;;;4.78;2.55;;;14.00;43.20;;;;;;5048399;28;20205;-79
2021/05/19 09:03:34;;;;;;;4.22;2.53;;;14.20;43.40;;;;;;5041696;28;20302;-80
2021/05/19 09:06:01;;;;;;;3.10;2.80;;;14.50;43.60;;;;;;5033917;28;20605;-78
2021/05/19 09:08:36;;;;;;;2.75;2.30;;;14.50;42.00;;;;;;5031710;28;20223;-78
2021/05/19 09:11:04;;;;;;;2.40;2.20;;;14.50;41.70;;;;;;5027249;28;20192;-79
2021/05/19 09:13:36;;;;;;;3.42;2.10;;;14.60;40.40;;;;;;5035716;28;20199;-80
2021/05/19 09:16:05;;;;;;;2.40;2.13;;;14.90;40.00;;;;;;5048921;28;20211;-77
2021/05/19 09:18:53;;;;;;;1.88;1.77;;;14.90;38.00;;;;;;5042484;28;20254;-79
2021/05/19 09:21:38;;;;;;;4.53;1.70;;;14.90;38.50;;;;;;5035113;28;20211;-79
2021/05/19 09:24:09;;;;;;;3.97;1.58;;;15.10;37.90;;;;;;5039739;28;20214;-77
2021/05/19 09:26:51;;;;;;;2.95;1.95;;;15.20;37.50;;;;;;5042286;28;20281;-79
2021/05/19 09:29:22;;;;;;;3.47;2.60;;;15.30;37.20;;;;;;5042937;28;20250;-78
2021/05/19 09:31:54;;;;;;;3.15;2.10;;;15.30;35.90;;;;;;5046472;28;20632;-78
2021/05/19 09:34:22;;;;;;;3.55;2.78;;;15.20;37.50;;;;;;5043390;28;20816;-79
2021/05/19 09:36:49;;;;;;;1.77;1.67;;;15.50;37.00;;;;;;5039901;28;20211;-79
2021/05/19 09:39:15;;;;;;;5.70;1.80;;;15.50;35.70;;;;;;5036559;28;20245;-79
2021/05/19 09:41:42;;;;;;;1.48;1.30;;;15.40;35.30;;;;;;5040499;28;20207;-78
2021/05/19 09:44:11;;;;;;;2.50;1.85;;;15.50;34.60;;;;;;5053682;28;20207;-78
2021/05/19 09:46:45;;;;;;;2.50;1.65;;;15.70;34.80;;;;;;5037188;28;20231;-79
2021/05/19 09:49:13;;;;;;;1.92;1.70;;;16.00;35.10;;;;;;5037432;28;20218;-79
2021/05/19 09:51:43;;;;;;;1.30;1.20;;;16.00;34.50;;;;;;5037723;28;20211;-79
2021/05/19 09:54:28;;;;;;;2.97;1.48;;;16.20;33.50;;;;;;5036685;28;20674;-78
2021/05/19 09:56:55;;;;;;;2.78;1.50;;;16.40;32.60;;;;;;5036673;28;20574;-78
2021/05/19 09:59:23;;;;;;;1.48;1.38;;;16.50;32.30;;;;;;5038465;28;20231;-79
2021/05/19 10:01:50;;;;;;;3.67;1.58;;;16.70;30.80;;;;;;5035958;28;20238;-78
2021/05/19 10:04:18;;;;;;;4.57;1.50;;;16.80;31.30;;;;;;5037572;28;20609;-79
2021/05/19 10:06:47;;;;;;;6.13;1.42;;;16.90;30.10;;;;;;5037947;28;20211;-79
2021/05/19 10:09:15;;;;;;;1.50;1.40;;;16.90;29.10;;;;;;5046036;28;20262;-78
2021/05/19 10:11:43;;;;;;;2.95;1.50;;;16.70;30.20;;;;;;5045390;28;20210;-78
2021/05/19 10:14:12;;;;;;;2.45;1.50;;;17.00;29.30;;;;;;5044038;28;20218;-78
2021/05/19 10:16:42;;;;;;;1.47;1.37;;;17.20;29.30;;;;;;5043383;28;20229;-79
2021/05/19 10:19:12;;;;;;;3.33;1.30;;;17.40;29.50;;;;;;5042163;28;20504;-79
2021/05/19 10:21:39;;;;;;;1.13;1.03;;;17.60;28.40;;;;;;5042334;28;20508;-78
2021/05/19 10:24:10;;;;;;;1.60;1.37;;;17.80;27.90;;;;;;5047902;28;20773;-78
2021/05/19 10:27:07;;;;;;;7.77;1.70;;;17.90;28.40;;;;;;5049100;28;20446;-79
2021/05/19 10:29:59;;;;;;;2.27;1.40;;;18.30;27.70;;;;;;5055559;28;20469;-79
2021/05/19 10:32:30;;;;;;;2.47;1.50;;;17.80;29.00;;;;;;5058428;28;20418;-82
2021/05/19 10:34:58;;;;;;;2.17;1.40;;;18.30;29.40;;;;;;5058275;28;20494;-79
2021/05/19 10:37:54;;;;;;;2.00;1.50;;;18.70;28.00;;;;;;5057533;28;20443;-81
2021/05/19 10:40:31;;;;;;;3.60;1.60;;;18.30;27.70;;;;;;5057080;28;20473;-80
2021/05/19 10:43:00;;;;;;;2.77;1.70;;;18.00;29.30;;;;;;5055964;28;20444;-77
2021/05/19 10:45:28;;;;;;;2.23;1.47;;;18.20;29.00;;;;;;5048331;28;20458;-78
2021/05/19 10:47:55;;;;;;;5.17;1.60;;;18.40;28.80;;;;;;5040069;28;20486;-79
2021/05/19 10:50:30;;;;;;;2.70;1.50;;;17.60;29.10;;;;;;5042991;28;20454;-77
2021/05/19 10:58:45;;;;;;;1.70;1.60;;;17.80;29.90;;;;;;5045500;28;20538;-79
2021/05/19 11:01:12;;;;;;;3.63;1.63;;;18.30;29.80;;;;;;5047317;28;20502;-78
2021/05/19 11:03:40;;;;;;;3.13;1.50;;;18.30;28.00;;;;;;5047698;28;20461;-78
2021/05/19 11:06:10;;;;;;;2.00;1.60;;;18.20;29.00;;;;;;5048701;28;20457;-81
2021/05/19 11:08:38;;;;;;;2.57;1.70;;;17.90;28.60;;;;;;5051594;28;20513;-80
2021/05/19 11:11:32;;;;;;;1.40;1.17;;;17.70;28.00;;;;;;5049936;28;20453;-77
2021/05/19 11:14:15;;;;;;;1.73;1.40;;;17.40;28.90;;;;;;5043899;28;20457;-79
2021/05/19 11:17:07;;;;;;;2.50;1.37;;;17.40;27.30;;;;;;5048299;28;20438;-79
2021/05/19 11:19:36;;;;;;;2.50;1.57;;;17.50;27.10;;;;;;5052195;28;20486;-78
2021/05/19 11:22:13;;;;;;;1.90;0.90;;;17.90;26.00;;;;;;5049997;28;20461;-78
2021/05/19 11:24:54;;;;;;;2.73;1.23;;;18.50;25.60;;;;;;5045482;28;20419;-78
2021/05/19 11:27:23;;;;;;;2.30;1.60;;;19.20;24.70;;;;;;5042302;28;20477;-80
2021/05/19 11:29:50;;;;;;;1.43;1.33;;;19.60;24.10;;;;;;5082531;22;20511;-84
2021/05/19 11:32:21;;;;;;;5.57;1.90;;;19.70;22.70;;;;;;5063125;28;20445;-86
2021/05/19 11:34:48;;;;;;;2.60;1.57;;;19.70;23.80;;;;;;5062744;28;20510;-83
2021/05/19 11:37:16;;;;;;;2.40;1.37;;;19.90;24.70;;;;;;5063042;28;20493;-83
2021/05/19 11:39:45;;;;;;;2.10;1.57;;;19.80;24.10;;;;;;5045678;28;20493;-86
2021/05/19 11:42:18;;;;;;;2.33;1.40;;;19.50;24.90;;;;;;5043100;28;20450;-84
2021/05/19 11:44:49;;;;;;;1.43;1.27;;;19.70;24.70;;;;;;5045200;28;20417;-85
2021/05/19 11:47:20;;;;;;;3.40;1.33;;;19.80;24.80;;;;;;5042613;28;20439;-84
2021/05/19 11:49:47;;;;;;;4.30;1.40;;;20.30;24.40;;;;;;5041850;28;20469;-85
2021/05/19 11:52:13;;;;;;;2.73;1.40;;;19.10;25.30;;;;;;5042805;28;20913;-84
2021/05/19 11:54:41;;;;;;;2.83;1.60;;;18.60;27.90;;;;;;5045318;28;20468;-83
2021/05/19 11:57:10;;;;;;;2.73;1.13;;;19.40;25.90;;;;;;5045158;28;20409;-83
2021/05/19 11:59:39;;;;;;;3.13;1.20;;;19.80;24.70;;;;;;5044757;28;20464;-84
2021/05/19 12:02:07;;;;;;;1.00;0.90;;;19.80;20.60;;;;;;5045870;28;20454;-84
2021/05/19 12:04:36;;;;;;;1.93;1.20;;;19.80;22.40;;;;;;5045691;28;20449;-85
2021/05/19 12:07:06;;;;;;;2.07;1.57;;;20.10;21.70;;;;;;5045669;28;20438;-84
2021/05/19 12:09:36;;;;;;;2.87;1.47;;;20.10;22.00;;;;;;5047381;28;20465;-85
2021/05/19 12:12:11;;;;;;;1.03;0.90;;;20.20;22.40;;;;;;5047288;28;20397;-84
2021/05/19 12:14:39;;;;;;;2.60;1.10;;;19.80;22.60;;;;;;5048507;28;20433;-84
2021/05/19 12:17:07;;;;;;;2.80;1.30;;;19.80;22.80;;;;;;5043605;28;20485;-82
2021/05/19 12:19:39;;;;;;;1.53;1.10;;;20.20;22.00;;;;;;5045529;28;20987;-85
2021/05/19 12:22:10;;;;;;;1.33;0.90;;;20.10;22.10;;;;;;5044459;28;20466;-85
2021/05/19 12:24:37;;;;;;;1.70;1.60;;;19.80;22.10;;;;;;5044887;28;20430;-80
2021/05/19 12:27:04;;;;;;;3.60;1.10;;;19.90;23.00;;;;;;5045047;28;20431;-84
2021/05/19 12:29:36;;;;;;;3.10;1.17;;;20.20;21.70;;;;;;5045411;28;20476;-83
2021/05/19 12:32:15;;;;;;;3.63;1.70;;;20.50;21.00;;;;;;5049973;28;20418;-84
2021/05/19 12:34:43;;;;;;;3.53;1.20;;;20.90;21.30;;;;;;5054821;28;20437;-85
2021/05/19 12:37:09;;;;;;;2.93;1.00;;;21.00;21.40;;;;;;5053583;28;20908;-83
2021/05/19 12:39:37;;;;;;;2.10;1.00;;;20.60;21.10;;;;;;5055833;28;20499;-83
2021/05/19 12:42:15;;;;;;;1.17;1.00;;;20.50;21.00;;;;;;5054521;28;20450;-84
2021/05/19 12:44:42;;;;;;;3.93;1.20;;;20.60;21.70;;;;;;5048721;28;20464;-84
2021/05/19 12:47:10;;;;;;;2.33;0.90;;;20.70;21.20;;;;;;5047742;28;20937;-83
2021/05/19 12:49:40;;;;;;;1.97;1.00;;;20.60;21.10;;;;;;5046648;28;20481;-85
2021/05/19 12:52:16;;;;;;;3.47;0.93;;;20.10;20.80;;;;;;5046326;28;20487;-87
2021/05/19 12:54:47;;;;;;;3.13;1.40;;;19.70;22.10;;;;;;5046920;28;20401;-84
2021/05/19 12:57:17;;;;;;;3.90;1.20;;;19.50;22.60;;;;;;5044558;28;20478;-84
2021/05/19 12:59:51;;;;;;;1.93;1.20;;;19.50;22.30;;;;;;5044353;28;20510;-83
2021/05/19 13:02:18;;;;;;;2.73;0.87;;;19.40;23.20;;;;;;5045296;28;20441;-86
2021/05/19 13:04:49;;;;;;;2.60;1.23;;;19.10;25.40;;;;;;5053466;28;20469;-86